sensor_id;sensor_type;location;lat;lon;timestamp;P1;durP1;ratioP1;P2;durP2;ratioP2
29402;SDS011;16382;59.942;30.472;2023-06-01T00:02:19;6.03;;;3.03;;
29402;SDS011;16382;59.942;30.472;2023-06-01T00:04:48;10.25;;;7.10;;
29402;SDS011;16382;59.942;30.472;2023-06-01T00:07:16;8.25;;;4.93;;
29402;SDS011;16382;59.942;30.472;2023-06-01T00:09:44;9.55;;;3.70;;
29402;SDS011;16382;59.942;30.472;2023-06-01T00:12:11;5.80;;;2.50;;
29402;SDS011;16382;59.942;30.472;2023-06-01T00:14:39;8.85;;;3.30;;
29402;SDS011;16382;59.942;30.472;2023-06-01T00:17:06;5.38;;;3.33;;
29402;SDS011;16382;59.942;30.472;2023-06-01T00:19:35;6.63;;;2.70;;
29402;SDS011;16382;59.942;30.472;2023-06-01T00:22:05;4.85;;;3.65;;
29402;SDS011;16382;59.942;30.472;2023-06-01T00:24:33;7.13;;;2.53;;
29402;SDS011;16382;59.942;30.472;2023-06-01T00:27:01;8.60;;;3.17;;
29402;SDS011;16382;59.942;30.472;2023-06-01T00:29:29;8.95;;;3.13;;
29402;SDS011;16382;59.942;30.472;2023-06-01T00:31:57;6.03;;;2.50;;
29402;SDS011;16382;59.942;30.472;2023-06-01T00:34:24;5.50;;;2.78;;
29402;SDS011;16382;59.942;30.472;2023-06-01T00:36:52;5.68;;;2.83;;
29402;SDS011;16382;59.942;30.472;2023-06-01T00:39:21;7.03;;;2.92;;
29402;SDS011;16382;59.942;30.472;2023-06-01T00:41:48;7.03;;;3.38;;
29402;SDS011;16382;59.942;30.472;2023-06-01T00:44:16;6.60;;;2.55;;
29402;SDS011;16382;59.942;30.472;2023-06-01T00:46:43;6.10;;;3.28;;
29402;SDS011;16382;59.942;30.472;2023-06-01T00:49:11;5.57;;;2.58;;
29402;SDS011;16382;59.942;30.472;2023-06-01T00:51:38;6.57;;;2.55;;
29402;SDS011;16382;59.942;30.472;2023-06-01T00:54:06;6.38;;;2.85;;
29402;SDS011;16382;59.942;30.472;2023-06-01T00:56:35;12.85;;;3.08;;
29402;SDS011;16382;59.942;30.472;2023-06-01T00:59:04;6.57;;;2.70;;
29402;SDS011;16382;59.942;30.472;2023-06-01T01:01:32;6.72;;;3.10;;
29402;SDS011;16382;59.942;30.472;2023-06-01T01:04:01;5.55;;;2.60;;
29402;SDS011;16382;59.942;30.472;2023-06-01T01:06:32;3.80;;;2.70;;
29402;SDS011;16382;59.942;30.472;2023-06-01T01:09:18;7.65;;;2.78;;
29402;SDS011;16382;59.942;30.472;2023-06-01T01:11:58;10.60;;;3.45;;
29402;SDS011;16382;59.942;30.472;2023-06-01T01:14:30;4.80;;;3.05;;
29402;SDS011;16382;59.942;30.472;2023-06-01T01:17:06;6.95;;;2.78;;
29402;SDS011;16382;59.942;30.472;2023-06-01T01:19:47;6.60;;;3.00;;
29402;SDS011;16382;59.942;30.472;2023-06-01T01:22:22;4.97;;;2.45;;
29402;SDS011;16382;59.942;30.472;2023-06-01T01:28:08;6.80;;;3.30;;
29402;SDS011;16382;59.942;30.472;2023-06-01T01:30:48;8.17;;;3.37;;
29402;SDS011;16382;59.942;30.472;2023-06-01T01:33:20;10.13;;;2.63;;
29402;SDS011;16382;59.942;30.472;2023-06-01T01:35:48;5.10;;;2.90;;
29402;SDS011;16382;59.942;30.472;2023-06-01T01:38:16;13.35;;;4.80;;
29402;SDS011;16382;59.942;30.472;2023-06-01T01:40:44;5.85;;;2.75;;
29402;SDS011;16382;59.942;30.472;2023-06-01T01:43:11;5.18;;;2.80;;
29402;SDS011;16382;59.942;30.472;2023-06-01T01:49:05;4.75;;;2.72;;
29402;SDS011;16382;59.942;30.472;2023-06-01T01:51:40;6.82;;;2.63;;
29402;SDS011;16382;59.942;30.472;2023-06-01T01:54:16;7.60;;;2.75;;
29402;SDS011;16382;59.942;30.472;2023-06-01T01:56:45;8.35;;;3.17;;
29402;SDS011;16382;59.942;30.472;2023-06-01T01:59:13;4.82;;;2.58;;
29402;SDS011;16382;59.942;30.472;2023-06-01T02:01:42;5.50;;;2.38;;
29402;SDS011;16382;59.942;30.472;2023-06-01T02:04:11;4.45;;;2.38;;
29402;SDS011;16382;59.942;30.472;2023-06-01T02:06:39;6.28;;;2.50;;
29402;SDS011;16382;59.942;30.472;2023-06-01T02:09:06;8.57;;;2.63;;
29402;SDS011;16382;59.942;30.472;2023-06-01T02:11:34;3.70;;;2.20;;
29402;SDS011;16382;59.942;30.472;2023-06-01T02:14:03;7.97;;;2.22;;
29402;SDS011;16382;59.942;30.472;2023-06-01T02:16:31;7.78;;;2.63;;
29402;SDS011;16382;59.942;30.472;2023-06-01T02:18:59;13.20;;;2.92;;
29402;SDS011;16382;59.942;30.472;2023-06-01T02:21:29;13.25;;;2.45;;
29402;SDS011;16382;59.942;30.472;2023-06-01T02:24:00;8.05;;;2.92;;
29402;SDS011;16382;59.942;30.472;2023-06-01T02:26:31;8.30;;;2.85;;
29402;SDS011;16382;59.942;30.472;2023-06-01T02:28:58;7.75;;;2.22;;
29402;SDS011;16382;59.942;30.472;2023-06-01T02:31:27;7.53;;;2.80;;
29402;SDS011;16382;59.942;30.472;2023-06-01T02:33:55;7.45;;;2.80;;
29402;SDS011;16382;59.942;30.472;2023-06-01T02:36:22;5.13;;;2.03;;
29402;SDS011;16382;59.942;30.472;2023-06-01T02:38:53;3.90;;;2.40;;
29402;SDS011;16382;59.942;30.472;2023-06-01T02:41:20;7.55;;;2.67;;
29402;SDS011;16382;59.942;30.472;2023-06-01T02:43:48;6.18;;;2.65;;
29402;SDS011;16382;59.942;30.472;2023-06-01T02:46:17;6.65;;;2.45;;
29402;SDS011;16382;59.942;30.472;2023-06-01T02:48:45;8.88;;;2.70;;
29402;SDS011;16382;59.942;30.472;2023-06-01T02:51:13;5.50;;;2.15;;
29402;SDS011;16382;59.942;30.472;2023-06-01T02:53:43;5.90;;;2.40;;
29402;SDS011;16382;59.942;30.472;2023-06-01T02:56:14;7.32;;;2.80;;
29402;SDS011;16382;59.942;30.472;2023-06-01T02:59:20;7.72;;;2.80;;
29402;SDS011;16382;59.942;30.472;2023-06-01T03:01:54;4.53;;;2.30;;
29402;SDS011;16382;59.942;30.472;2023-06-01T03:04:21;5.68;;;2.35;;
29402;SDS011;16382;59.942;30.472;2023-06-01T03:06:50;4.88;;;2.10;;
29402;SDS011;16382;59.942;30.472;2023-06-01T03:09:44;3.85;;;2.35;;
29402;SDS011;16382;59.942;30.472;2023-06-01T03:12:45;9.15;;;1.92;;
29402;SDS011;16382;59.942;30.472;2023-06-01T03:15:16;11.20;;;2.47;;
29402;SDS011;16382;59.942;30.472;2023-06-01T03:17:44;8.20;;;2.65;;
29402;SDS011;16382;59.942;30.472;2023-06-01T03:20:11;5.70;;;2.25;;
29402;SDS011;16382;59.942;30.472;2023-06-01T03:22:41;6.32;;;1.80;;
29402;SDS011;16382;59.942;30.472;2023-06-01T03:25:09;4.30;;;2.53;;
29402;SDS011;16382;59.942;30.472;2023-06-01T03:27:38;5.55;;;2.00;;
29402;SDS011;16382;59.942;30.472;2023-06-01T03:30:08;7.50;;;2.35;;
29402;SDS011;16382;59.942;30.472;2023-06-01T03:32:38;4.05;;;2.20;;
29402;SDS011;16382;59.942;30.472;2023-06-01T03:35:08;3.72;;;1.42;;
29402;SDS011;16382;59.942;30.472;2023-06-01T03:37:37;5.72;;;1.70;;
29402;SDS011;16382;59.942;30.472;2023-06-01T03:40:07;3.53;;;1.48;;
29402;SDS011;16382;59.942;30.472;2023-06-01T03:42:38;4.72;;;1.85;;
29402;SDS011;16382;59.942;30.472;2023-06-01T03:45:09;1.73;;;1.25;;
29402;SDS011;16382;59.942;30.472;2023-06-01T03:47:38;7.57;;;1.73;;
29402;SDS011;16382;59.942;30.472;2023-06-01T03:50:07;5.30;;;1.75;;
29402;SDS011;16382;59.942;30.472;2023-06-01T03:52:38;2.00;;;1.55;;
29402;SDS011;16382;59.942;30.472;2023-06-01T03:55:07;2.67;;;1.98;;
29402;SDS011;16382;59.942;30.472;2023-06-01T03:58:02;5.38;;;2.10;;
29402;SDS011;16382;59.942;30.472;2023-06-01T04:00:33;4.75;;;1.80;;
29402;SDS011;16382;59.942;30.472;2023-06-01T04:03:03;2.88;;;2.08;;
29402;SDS011;16382;59.942;30.472;2023-06-01T04:05:33;3.35;;;1.63;;
29402;SDS011;16382;59.942;30.472;2023-06-01T04:08:02;2.22;;;1.30;;
29402;SDS011;16382;59.942;30.472;2023-06-01T04:10:30;4.32;;;1.70;;
29402;SDS011;16382;59.942;30.472;2023-06-01T04:12:57;5.20;;;1.65;;
29402;SDS011;16382;59.942;30.472;2023-06-01T04:15:27;6.60;;;1.70;;
29402;SDS011;16382;59.942;30.472;2023-06-01T04:17:58;3.30;;;1.58;;
29402;SDS011;16382;59.942;30.472;2023-06-01T04:20:28;5.18;;;2.17;;
29402;SDS011;16382;59.942;30.472;2023-06-01T04:22:57;6.15;;;1.73;;
29402;SDS011;16382;59.942;30.472;2023-06-01T04:25:24;5.93;;;1.33;;
29402;SDS011;16382;59.942;30.472;2023-06-01T04:27:54;4.32;;;1.55;;
29402;SDS011;16382;59.942;30.472;2023-06-01T04:30:24;3.65;;;1.20;;
29402;SDS011;16382;59.942;30.472;2023-06-01T04:32:53;3.67;;;1.30;;
29402;SDS011;16382;59.942;30.472;2023-06-01T04:35:30;8.35;;;1.55;;
29402;SDS011;16382;59.942;30.472;2023-06-01T04:38:16;2.70;;;1.25;;
29402;SDS011;16382;59.942;30.472;2023-06-01T04:40:45;5.40;;;1.52;;
29402;SDS011;16382;59.942;30.472;2023-06-01T04:43:13;1.20;;;0.95;;
29402;SDS011;16382;59.942;30.472;2023-06-01T04:45:45;2.42;;;1.13;;
29402;SDS011;16382;59.942;30.472;2023-06-01T04:48:15;4.68;;;1.83;;
29402;SDS011;16382;59.942;30.472;2023-06-01T04:51:01;3.10;;;1.35;;
29402;SDS011;16382;59.942;30.472;2023-06-01T04:53:29;3.67;;;1.30;;
29402;SDS011;16382;59.942;30.472;2023-06-01T04:55:58;3.85;;;1.98;;
29402;SDS011;16382;59.942;30.472;2023-06-01T04:58:26;4.85;;;1.42;;
29402;SDS011;16382;59.942;30.472;2023-06-01T05:00:58;1.67;;;1.17;;
29402;SDS011;16382;59.942;30.472;2023-06-01T05:03:27;4.97;;;1.35;;
29402;SDS011;16382;59.942;30.472;2023-06-01T05:05:57;2.72;;;1.35;;
29402;SDS011;16382;59.942;30.472;2023-06-01T05:08:29;6.38;;;1.25;;
29402;SDS011;16382;59.942;30.472;2023-06-01T05:10:59;4.72;;;1.52;;
29402;SDS011;16382;59.942;30.472;2023-06-01T05:13:29;3.85;;;1.30;;
29402;SDS011;16382;59.942;30.472;2023-06-01T05:15:57;4.05;;;1.08;;
29402;SDS011;16382;59.942;30.472;2023-06-01T05:18:27;2.65;;;1.15;;
29402;SDS011;16382;59.942;30.472;2023-06-01T05:21:02;4.90;;;1.20;;
29402;SDS011;16382;59.942;30.472;2023-06-01T05:23:35;3.20;;;1.65;;
29402;SDS011;16382;59.942;30.472;2023-06-01T05:26:02;4.25;;;1.25;;
29402;SDS011;16382;59.942;30.472;2023-06-01T05:28:34;3.38;;;1.63;;
29402;SDS011;16382;59.942;30.472;2023-06-01T05:31:03;1.77;;;1.27;;
29402;SDS011;16382;59.942;30.472;2023-06-01T05:33:40;5.38;;;1.40;;
29402;SDS011;16382;59.942;30.472;2023-06-01T05:36:10;2.78;;;1.40;;
29402;SDS011;16382;59.942;30.472;2023-06-01T05:38:38;4.38;;;1.02;;
29402;SDS011;16382;59.942;30.472;2023-06-01T05:41:06;3.28;;;1.00;;
29402;SDS011;16382;59.942;30.472;2023-06-01T05:43:37;3.83;;;1.20;;
29402;SDS011;16382;59.942;30.472;2023-06-01T05:46:09;4.18;;;1.58;;
29402;SDS011;16382;59.942;30.472;2023-06-01T05:48:38;3.38;;;1.20;;
29402;SDS011;16382;59.942;30.472;2023-06-01T05:51:12;3.35;;;1.00;;
29402;SDS011;16382;59.942;30.472;2023-06-01T05:53:43;3.90;;;1.30;;
29402;SDS011;16382;59.942;30.472;2023-06-01T05:56:18;2.75;;;1.20;;
29402;SDS011;16382;59.942;30.472;2023-06-01T05:58:46;4.00;;;0.90;;
29402;SDS011;16382;59.942;30.472;2023-06-01T06:01:23;2.67;;;0.98;;
29402;SDS011;16382;59.942;30.472;2023-06-01T06:03:54;5.03;;;1.05;;
29402;SDS011;16382;59.942;30.472;2023-06-01T06:06:25;1.20;;;0.88;;
29402;SDS011;16382;59.942;30.472;2023-06-01T06:08:56;7.05;;;0.98;;
29402;SDS011;16382;59.942;30.472;2023-06-01T06:11:23;2.53;;;1.15;;
29402;SDS011;16382;59.942;30.472;2023-06-01T06:13:51;3.35;;;0.55;;
29402;SDS011;16382;59.942;30.472;2023-06-01T06:16:22;2.50;;;1.27;;
29402;SDS011;16382;59.942;30.472;2023-06-01T06:18:49;5.28;;;0.63;;
29402;SDS011;16382;59.942;30.472;2023-06-01T06:21:22;3.72;;;0.82;;
29402;SDS011;16382;59.942;30.472;2023-06-01T06:23:53;3.40;;;1.65;;
29402;SDS011;16382;59.942;30.472;2023-06-01T06:26:30;8.27;;;1.42;;
29402;SDS011;16382;59.942;30.472;2023-06-01T06:29:01;3.10;;;1.20;;
29402;SDS011;16382;59.942;30.472;2023-06-01T06:31:32;3.35;;;0.80;;
29402;SDS011;16382;59.942;30.472;2023-06-01T06:34:00;3.10;;;1.02;;
29402;SDS011;16382;59.942;30.472;2023-06-01T06:36:34;1.90;;;0.88;;
29402;SDS011;16382;59.942;30.472;2023-06-01T06:39:20;2.00;;;1.10;;
29402;SDS011;16382;59.942;30.472;2023-06-01T06:41:48;6.07;;;1.23;;
29402;SDS011;16382;59.942;30.472;2023-06-01T06:44:15;2.60;;;1.00;;
29402;SDS011;16382;59.942;30.472;2023-06-01T06:46:45;6.85;;;1.20;;
29402;SDS011;16382;59.942;30.472;2023-06-01T06:52:26;5.35;;;1.05;;
29402;SDS011;16382;59.942;30.472;2023-06-01T06:54:54;2.80;;;1.08;;
29402;SDS011;16382;59.942;30.472;2023-06-01T06:57:24;9.30;;;1.35;;
29402;SDS011;16382;59.942;30.472;2023-06-01T06:59:54;6.82;;;1.20;;
29402;SDS011;16382;59.942;30.472;2023-06-01T07:02:26;2.30;;;0.88;;
29402;SDS011;16382;59.942;30.472;2023-06-01T07:04:56;8.82;;;1.65;;
29402;SDS011;16382;59.942;30.472;2023-06-01T07:07:38;9.40;;;1.20;;
29402;SDS011;16382;59.942;30.472;2023-06-01T07:10:09;2.80;;;1.00;;
29402;SDS011;16382;59.942;30.472;2023-06-01T07:12:37;7.10;;;1.35;;
29402;SDS011;16382;59.942;30.472;2023-06-01T07:15:06;8.95;;;1.05;;
29402;SDS011;16382;59.942;30.472;2023-06-01T07:17:34;5.53;;;1.42;;
29402;SDS011;16382;59.942;30.472;2023-06-01T07:20:02;6.30;;;1.20;;
29402;SDS011;16382;59.942;30.472;2023-06-01T07:22:38;4.60;;;0.82;;
29402;SDS011;16382;59.942;30.472;2023-06-01T07:25:10;8.65;;;1.27;;
29402;SDS011;16382;59.942;30.472;2023-06-01T07:27:38;4.10;;;1.17;;
29402;SDS011;16382;59.942;30.472;2023-06-01T07:30:13;6.88;;;1.10;;
29402;SDS011;16382;59.942;30.472;2023-06-01T07:32:53;8.10;;;1.52;;
29402;SDS011;16382;59.942;30.472;2023-06-01T07:35:20;1.27;;;0.98;;
29402;SDS011;16382;59.942;30.472;2023-06-01T07:37:50;3.85;;;0.93;;
29402;SDS011;16382;59.942;30.472;2023-06-01T07:40:23;7.13;;;1.05;;
29402;SDS011;16382;59.942;30.472;2023-06-01T07:42:51;5.35;;;0.80;;
29402;SDS011;16382;59.942;30.472;2023-06-01T07:45:19;6.60;;;1.15;;
29402;SDS011;16382;59.942;30.472;2023-06-01T07:47:54;10.32;;;1.20;;
29402;SDS011;16382;59.942;30.472;2023-06-01T07:50:22;5.70;;;1.30;;
29402;SDS011;16382;59.942;30.472;2023-06-01T07:53:04;6.05;;;1.35;;
29402;SDS011;16382;59.942;30.472;2023-06-01T07:55:32;6.25;;;0.90;;
29402;SDS011;16382;59.942;30.472;2023-06-01T07:58:00;7.30;;;0.77;;
29402;SDS011;16382;59.942;30.472;2023-06-01T08:00:41;8.63;;;0.85;;
29402;SDS011;16382;59.942;30.472;2023-06-01T08:03:11;11.20;;;1.60;;
29402;SDS011;16382;59.942;30.472;2023-06-01T08:05:41;5.13;;;0.88;;
29402;SDS011;16382;59.942;30.472;2023-06-01T08:08:20;4.80;;;0.95;;
29402;SDS011;16382;59.942;30.472;2023-06-01T08:10:49;11.30;;;1.00;;
29402;SDS011;16382;59.942;30.472;2023-06-01T08:13:20;4.57;;;1.02;;
29402;SDS011;16382;59.942;30.472;2023-06-01T08:15:51;3.70;;;1.20;;
29402;SDS011;16382;59.942;30.472;2023-06-01T08:18:19;6.50;;;1.17;;
29402;SDS011;16382;59.942;30.472;2023-06-01T08:20:48;10.05;;;1.25;;
29402;SDS011;16382;59.942;30.472;2023-06-01T08:23:20;3.92;;;1.02;;
29402;SDS011;16382;59.942;30.472;2023-06-01T08:25:48;6.13;;;1.25;;
29402;SDS011;16382;59.942;30.472;2023-06-01T08:28:16;1.48;;;0.80;;
29402;SDS011;16382;59.942;30.472;2023-06-01T08:30:44;4.90;;;1.30;;
29402;SDS011;16382;59.942;30.472;2023-06-01T08:33:14;5.30;;;1.35;;
29402;SDS011;16382;59.942;30.472;2023-06-01T08:35:42;6.80;;;1.10;;
29402;SDS011;16382;59.942;30.472;2023-06-01T08:38:09;3.35;;;0.85;;
29402;SDS011;16382;59.942;30.472;2023-06-01T08:40:40;15.07;;;1.10;;
29402;SDS011;16382;59.942;30.472;2023-06-01T08:43:11;8.65;;;1.25;;
29402;SDS011;16382;59.942;30.472;2023-06-01T08:45:44;7.10;;;1.08;;
29402;SDS011;16382;59.942;30.472;2023-06-01T08:48:14;4.20;;;1.17;;
29402;SDS011;16382;59.942;30.472;2023-06-01T08:50:48;7.05;;;1.52;;
29402;SDS011;16382;59.942;30.472;2023-06-01T08:53:19;5.65;;;1.02;;
29402;SDS011;16382;59.942;30.472;2023-06-01T08:55:54;12.27;;;1.52;;
29402;SDS011;16382;59.942;30.472;2023-06-01T08:58:24;6.03;;;1.02;;
29402;SDS011;16382;59.942;30.472;2023-06-01T09:01:02;4.00;;;0.93;;
29402;SDS011;16382;59.942;30.472;2023-06-01T09:03:30;9.38;;;1.10;;
29402;SDS011;16382;59.942;30.472;2023-06-01T09:05:57;2.85;;;1.30;;
29402;SDS011;16382;59.942;30.472;2023-06-01T09:08:28;10.30;;;1.20;;
29402;SDS011;16382;59.942;30.472;2023-06-01T09:11:00;7.30;;;1.20;;
29402;SDS011;16382;59.942;30.472;2023-06-01T09:13:32;4.47;;;1.30;;
29402;SDS011;16382;59.942;30.472;2023-06-01T09:16:05;6.40;;;1.40;;
29402;SDS011;16382;59.942;30.472;2023-06-01T09:18:49;5.68;;;1.20;;
29402;SDS011;16382;59.942;30.472;2023-06-01T09:21:19;8.23;;;1.40;;
29402;SDS011;16382;59.942;30.472;2023-06-01T09:23:46;12.93;;;1.90;;
29402;SDS011;16382;59.942;30.472;2023-06-01T09:26:17;12.25;;;2.08;;
29402;SDS011;16382;59.942;30.472;2023-06-01T09:28:57;5.18;;;1.40;;
29402;SDS011;16382;59.942;30.472;2023-06-01T09:31:34;9.73;;;2.08;;
29402;SDS011;16382;59.942;30.472;2023-06-01T09:34:07;6.55;;;1.38;;
29402;SDS011;16382;59.942;30.472;2023-06-01T09:36:36;8.70;;;1.83;;
29402;SDS011;16382;59.942;30.472;2023-06-01T09:39:05;13.00;;;1.85;;
29402;SDS011;16382;59.942;30.472;2023-06-01T09:41:50;3.30;;;1.20;;
29402;SDS011;16382;59.942;30.472;2023-06-01T09:44:24;3.00;;;1.05;;
29402;SDS011;16382;59.942;30.472;2023-06-01T09:46:54;4.85;;;1.30;;
29402;SDS011;16382;59.942;30.472;2023-06-01T09:49:27;6.78;;;1.70;;
29402;SDS011;16382;59.942;30.472;2023-06-01T09:52:07;4.40;;;1.42;;
29402;SDS011;16382;59.942;30.472;2023-06-01T09:54:41;4.75;;;1.10;;
29402;SDS011;16382;59.942;30.472;2023-06-01T09:57:22;11.35;;;1.73;;
29402;SDS011;16382;59.942;30.472;2023-06-01T09:59:54;6.25;;;1.42;;
29402;SDS011;16382;59.942;30.472;2023-06-01T10:02:25;7.88;;;1.98;;
29402;SDS011;16382;59.942;30.472;2023-06-01T10:04:56;9.10;;;1.42;;
29402;SDS011;16382;59.942;30.472;2023-06-01T10:07:28;3.22;;;1.20;;
29402;SDS011;16382;59.942;30.472;2023-06-01T10:10:00;12.23;;;1.40;;
29402;SDS011;16382;59.942;30.472;2023-06-01T10:12:32;8.48;;;1.77;;
29402;SDS011;16382;59.942;30.472;2023-06-01T10:15:03;14.18;;;1.48;;
29402;SDS011;16382;59.942;30.472;2023-06-01T10:17:33;7.50;;;1.20;;
29402;SDS011;16382;59.942;30.472;2023-06-01T10:20:08;10.23;;;1.60;;
29402;SDS011;16382;59.942;30.472;2023-06-01T10:22:38;18.38;;;1.85;;
29402;SDS011;16382;59.942;30.472;2023-06-01T10:25:08;14.63;;;1.73;;
29402;SDS011;16382;59.942;30.472;2023-06-01T10:27:45;11.25;;;1.85;;
29402;SDS011;16382;59.942;30.472;2023-06-01T10:30:26;15.05;;;2.15;;
29402;SDS011;16382;59.942;30.472;2023-06-01T10:32:55;27.38;;;2.38;;
29402;SDS011;16382;59.942;30.472;2023-06-01T10:38:27;14.65;;;1.75;;
29402;SDS011;16382;59.942;30.472;2023-06-01T10:43:58;10.43;;;1.42;;
29402;SDS011;16382;59.942;30.472;2023-06-01T10:46:36;7.78;;;1.48;;
29402;SDS011;16382;59.942;30.472;2023-06-01T10:49:10;12.93;;;1.60;;
29402;SDS011;16382;59.942;30.472;2023-06-01T10:51:38;10.15;;;1.75;;
29402;SDS011;16382;59.942;30.472;2023-06-01T10:57:19;15.20;;;2.00;;
29402;SDS011;16382;59.942;30.472;2023-06-01T11:02:50;7.13;;;1.38;;
29402;SDS011;16382;59.942;30.472;2023-06-01T11:05:37;10.60;;;1.40;;
29402;SDS011;16382;59.942;30.472;2023-06-01T11:08:49;11.45;;;1.48;;
29402;SDS011;16382;59.942;30.472;2023-06-01T11:11:22;12.43;;;1.70;;
29402;SDS011;16382;59.942;30.472;2023-06-01T11:14:07;3.95;;;1.17;;
29402;SDS011;16382;59.942;30.472;2023-06-01T11:16:41;9.27;;;1.25;;
29402;SDS011;16382;59.942;30.472;2023-06-01T11:19:10;6.88;;;1.30;;
29402;SDS011;16382;59.942;30.472;2023-06-01T11:21:46;9.05;;;1.40;;
29402;SDS011;16382;59.942;30.472;2023-06-01T11:24:14;16.30;;;1.80;;
29402;SDS011;16382;59.942;30.472;2023-06-01T11:26:44;8.07;;;1.23;;
29402;SDS011;16382;59.942;30.472;2023-06-01T11:29:14;6.53;;;1.98;;
29402;SDS011;16382;59.942;30.472;2023-06-01T11:31:47;14.93;;;1.50;;
29402;SDS011;16382;59.942;30.472;2023-06-01T11:34:16;10.30;;;1.20;;
29402;SDS011;16382;59.942;30.472;2023-06-01T11:36:47;6.22;;;1.30;;
29402;SDS011;16382;59.942;30.472;2023-06-01T11:39:17;7.50;;;1.73;;
29402;SDS011;16382;59.942;30.472;2023-06-01T11:41:50;8.07;;;1.58;;
29402;SDS011;16382;59.942;30.472;2023-06-01T11:44:24;8.23;;;1.90;;
29402;SDS011;16382;59.942;30.472;2023-06-01T11:46:54;4.55;;;1.60;;
29402;SDS011;16382;59.942;30.472;2023-06-01T11:49:23;17.90;;;2.80;;
29402;SDS011;16382;59.942;30.472;2023-06-01T11:51:51;7.22;;;1.55;;
29402;SDS011;16382;59.942;30.472;2023-06-01T11:54:22;21.38;;;1.83;;
29402;SDS011;16382;59.942;30.472;2023-06-01T11:57:04;5.38;;;1.40;;
29402;SDS011;16382;59.942;30.472;2023-06-01T11:59:37;9.15;;;1.92;;
29402;SDS011;16382;59.942;30.472;2023-06-01T12:02:16;5.13;;;1.50;;
29402;SDS011;16382;59.942;30.472;2023-06-01T12:04:56;14.48;;;2.13;;
29402;SDS011;16382;59.942;30.472;2023-06-01T12:07:25;8.85;;;1.80;;
29402;SDS011;16382;59.942;30.472;2023-06-01T12:09:54;10.27;;;1.83;;
29402;SDS011;16382;59.942;30.472;2023-06-01T12:12:23;9.30;;;1.73;;
29402;SDS011;16382;59.942;30.472;2023-06-01T12:14:54;17.25;;;1.73;;
29402;SDS011;16382;59.942;30.472;2023-06-01T12:17:22;5.35;;;1.60;;
29402;SDS011;16382;59.942;30.472;2023-06-01T12:19:50;3.28;;;1.42;;
29402;SDS011;16382;59.942;30.472;2023-06-01T12:22:18;10.98;;;1.85;;
29402;SDS011;16382;59.942;30.472;2023-06-01T12:24:46;11.15;;;1.90;;
29402;SDS011;16382;59.942;30.472;2023-06-01T12:27:13;13.00;;;3.30;;
29402;SDS011;16382;59.942;30.472;2023-06-01T12:29:45;19.90;;;1.90;;
29402;SDS011;16382;59.942;30.472;2023-06-01T12:32:16;17.92;;;2.60;;
29402;SDS011;16382;59.942;30.472;2023-06-01T12:35:02;7.47;;;1.95;;
29402;SDS011;16382;59.942;30.472;2023-06-01T12:37:32;12.48;;;1.83;;
29402;SDS011;16382;59.942;30.472;2023-06-01T12:40:00;7.43;;;2.03;;
29402;SDS011;16382;59.942;30.472;2023-06-01T12:42:55;6.20;;;1.80;;
29402;SDS011;16382;59.942;30.472;2023-06-01T12:45:23;11.52;;;2.05;;
29402;SDS011;16382;59.942;30.472;2023-06-01T12:48:07;7.63;;;1.45;;
29402;SDS011;16382;59.942;30.472;2023-06-01T12:50:47;9.88;;;1.98;;
29402;SDS011;16382;59.942;30.472;2023-06-01T12:53:15;11.23;;;1.83;;
29402;SDS011;16382;59.942;30.472;2023-06-01T12:55:42;19.50;;;2.13;;
29402;SDS011;16382;59.942;30.472;2023-06-01T12:58:10;10.68;;;1.80;;
29402;SDS011;16382;59.942;30.472;2023-06-01T13:00:38;17.95;;;1.85;;
29402;SDS011;16382;59.942;30.472;2023-06-01T13:03:05;8.07;;;1.80;;
29402;SDS011;16382;59.942;30.472;2023-06-01T13:05:33;7.55;;;1.98;;
29402;SDS011;16382;59.942;30.472;2023-06-01T13:08:02;13.23;;;2.20;;
29402;SDS011;16382;59.942;30.472;2023-06-01T13:10:29;4.97;;;2.00;;
29402;SDS011;16382;59.942;30.472;2023-06-01T13:12:57;7.03;;;1.98;;
29402;SDS011;16382;59.942;30.472;2023-06-01T13:15:25;5.57;;;1.55;;
29402;SDS011;16382;59.942;30.472;2023-06-01T13:17:53;11.00;;;1.90;;
29402;SDS011;16382;59.942;30.472;2023-06-01T13:20:21;8.93;;;1.60;;
29402;SDS011;16382;59.942;30.472;2023-06-01T13:22:50;3.50;;;1.60;;
29402;SDS011;16382;59.942;30.472;2023-06-01T13:25:21;6.55;;;1.90;;
29402;SDS011;16382;59.942;30.472;2023-06-01T13:27:48;9.23;;;1.70;;
29402;SDS011;16382;59.942;30.472;2023-06-01T13:30:16;9.50;;;2.05;;
29402;SDS011;16382;59.942;30.472;2023-06-01T13:32:44;8.15;;;1.33;;
29402;SDS011;16382;59.942;30.472;2023-06-01T13:35:12;5.30;;;1.35;;
29402;SDS011;16382;59.942;30.472;2023-06-01T13:37:39;13.95;;;3.45;;
29402;SDS011;16382;59.942;30.472;2023-06-01T13:40:07;4.90;;;1.45;;
29402;SDS011;16382;59.942;30.472;2023-06-01T13:42:37;10.65;;;2.03;;
29402;SDS011;16382;59.942;30.472;2023-06-01T13:45:05;5.53;;;1.25;;
29402;SDS011;16382;59.942;30.472;2023-06-01T13:47:34;4.18;;;1.55;;
29402;SDS011;16382;59.942;30.472;2023-06-01T13:50:02;10.20;;;1.60;;
29402;SDS011;16382;59.942;30.472;2023-06-01T13:52:30;6.50;;;1.73;;
29402;SDS011;16382;59.942;30.472;2023-06-01T13:54:59;12.40;;;1.90;;
29402;SDS011;16382;59.942;30.472;2023-06-01T13:57:26;5.85;;;1.25;;
29402;SDS011;16382;59.942;30.472;2023-06-01T13:59:55;9.88;;;1.92;;
29402;SDS011;16382;59.942;30.472;2023-06-01T14:02:22;6.10;;;1.45;;
29402;SDS011;16382;59.942;30.472;2023-06-01T14:04:50;2.63;;;1.38;;
29402;SDS011;16382;59.942;30.472;2023-06-01T14:07:18;8.20;;;1.77;;
29402;SDS011;16382;59.942;30.472;2023-06-01T14:09:45;5.68;;;1.58;;
29402;SDS011;16382;59.942;30.472;2023-06-01T14:12:13;4.93;;;1.58;;
29402;SDS011;16382;59.942;30.472;2023-06-01T14:14:41;6.85;;;1.40;;
29402;SDS011;16382;59.942;30.472;2023-06-01T14:17:10;13.00;;;2.10;;
29402;SDS011;16382;59.942;30.472;2023-06-01T14:19:38;2.58;;;1.05;;
29402;SDS011;16382;59.942;30.472;2023-06-01T14:22:08;3.10;;;1.40;;
29402;SDS011;16382;59.942;30.472;2023-06-01T14:24:35;3.88;;;1.73;;
29402;SDS011;16382;59.942;30.472;2023-06-01T14:27:03;4.57;;;1.40;;
29402;SDS011;16382;59.942;30.472;2023-06-01T14:29:31;5.18;;;1.38;;
29402;SDS011;16382;59.942;30.472;2023-06-01T14:31:59;7.35;;;1.30;;
29402;SDS011;16382;59.942;30.472;2023-06-01T14:34:28;5.70;;;2.03;;
29402;SDS011;16382;59.942;30.472;2023-06-01T14:36:55;5.97;;;2.05;;
29402;SDS011;16382;59.942;30.472;2023-06-01T14:39:23;3.80;;;1.25;;
29402;SDS011;16382;59.942;30.472;2023-06-01T14:41:51;7.18;;;2.03;;
29402;SDS011;16382;59.942;30.472;2023-06-01T14:44:19;5.50;;;2.03;;
29402;SDS011;16382;59.942;30.472;2023-06-01T14:46:46;7.55;;;1.85;;
29402;SDS011;16382;59.942;30.472;2023-06-01T14:49:14;11.02;;;1.60;;
29402;SDS011;16382;59.942;30.472;2023-06-01T14:51:42;9.52;;;2.55;;
29402;SDS011;16382;59.942;30.472;2023-06-01T14:54:10;3.60;;;1.60;;
29402;SDS011;16382;59.942;30.472;2023-06-01T14:59:31;7.82;;;1.20;;
29402;SDS011;16382;59.942;30.472;2023-06-01T15:02:06;5.40;;;1.15;;
29402;SDS011;16382;59.942;30.472;2023-06-01T15:04:34;3.53;;;1.20;;
29402;SDS011;16382;59.942;30.472;2023-06-01T15:07:03;4.10;;;1.45;;
29402;SDS011;16382;59.942;30.472;2023-06-01T15:09:31;6.28;;;1.15;;
29402;SDS011;16382;59.942;30.472;2023-06-01T15:11:58;8.27;;;1.70;;
29402;SDS011;16382;59.942;30.472;2023-06-01T15:14:26;3.45;;;1.45;;
29402;SDS011;16382;59.942;30.472;2023-06-01T15:16:54;4.70;;;1.40;;
29402;SDS011;16382;59.942;30.472;2023-06-01T15:19:22;9.88;;;1.52;;
29402;SDS011;16382;59.942;30.472;2023-06-01T15:21:49;6.95;;;1.40;;